Strona główna
METAR-TAF:

METAR-TAF

Lotnisko :

Port lotniczy Ndżamena

Ndżamena, Czad

Szerokość geograficzna: 12-08N, Długość geograficzna: 015-02E, wysokość: 295 m

Aktualna obserwacja pogody

Raport powstał 46 minut temu, godzina 11:00 UTC
Wiatr 14 kt od północ
Temperatura 30°C
Wilgotność 14%
Ciśnienie 1014 hPa
Widzialność 10 km lub więcej
Brak chmur poniżej 1500 m i brak chmur cumulonimbus

METAR: FTTJ 191100Z 01014KT CAVOK 30/00 Q1014 NOSIG

czas: 12:46 (11:46 UTC)

Prognoza

Raport powstał 46 minut temu, godzina 11:00 UTC
Prognoza ważna od 19 godzina 12 UTC do 20 godzina 18 UTC
Wiatr 10 kt od północno-północny wschód
Widzialność: 8000 m
Stopniowe zmiany
od 19 godzina 15 UTC do 19 godzina 18 UTC
Widzialność: 3000 m
pył
Przejściowo
od 19 godzina 20 UTC do 19 godzina 23 UTC
Widzialność: 0800 m
pył
Stopniowe zmiany
od 20 godzina 08 UTC do 20 godzina 10 UTC
Widzialność: 8000 m

TAF: FTTJ 191100Z 1912/2018 02010KT 8000 NSC BECMG 1915/1918 3000 DU TEMPO 1920/1923 0800 DU BECMG 2008/2010 8000 NSW

Obserwacja i prognoza pogody dla ponad 4000 lotnisk (raport METAR i TAF).

Dostępne stacje oznaczono żółtymi i czerwonymi punktami na mapie.

Najedź kursorem aby zobaczyć nazwę stacji.

Kliknij aby zobaczyć obserwacje i prognozy pogody.

Aby zmienić mapę: kliknij na zielony przycisk z czarnym krzyżykiem, aby powiększyć; na zielony przycisk z myślnikiem, aby pomniejszyć; na zielone strzałki, aby przejść do map sąsiednich.


METAR-TAF: